Time;durP1;ratioP1;P1;durP2;ratioP2;P2;SDS_P1;SDS_P2;PMS_P1;PMS_P2;Temp;Humidity;BMP_temperature;BMP_pressure;BME280_temperature;BME280_humidity;BME280_pressure;Samples;Min_cycle;Max_cycle;Signal;HPM_P1;HPM_P2
2022/07/09 00:00:05;;;;;;;10.00;2.60;;;;;;;14.51;92.66;102353.50;4990341;28;20260;-46
2022/07/09 00:02:35;;;;;;;6.90;2.80;;;;;;;14.56;92.82;102354.25;4990416;28;20601;-48
2022/07/09 00:05:01;;;;;;;6.80;2.60;;;;;;;14.50;93.20;102357.13;4989561;28;20205;-45
2022/07/09 00:07:26;;;;;;;6.15;2.50;;;;;;;14.57;93.08;102350.66;4990093;28;20256;-47
2022/07/09 00:09:52;;;;;;;8.23;3.10;;;;;;;14.60;92.88;102347.84;4972870;28;20561;-46
2022/07/09 00:12:18;;;;;;;9.45;2.90;;;;;;;14.60;92.89;102358.63;4989954;28;20208;-45
2022/07/09 00:14:44;;;;;;;7.05;2.47;;;;;;;14.60;92.83;102351.41;4992385;28;20220;-47
2022/07/09 00:17:09;;;;;;;8.23;2.75;;;;;;;14.51;93.01;102348.09;4994209;28;20268;-46
2022/07/09 00:19:35;;;;;;;11.82;2.70;;;;;;;14.59;93.10;102355.06;4993983;28;20335;-47
2022/07/09 00:22:00;;;;;;;5.57;2.20;;;;;;;14.65;92.56;102350.41;4993528;28;20173;-46
2022/07/09 00:24:26;;;;;;;5.97;2.47;;;;;;;14.65;92.60;102342.31;4993152;28;20216;-46
2022/07/09 00:26:51;;;;;;;9.30;2.33;;;;;;;14.60;92.48;102337.94;4993087;28;20572;-47
2022/07/09 00:29:17;;;;;;;4.95;2.38;;;;;;;14.53;92.83;102338.16;4993814;28;20631;-46
2022/07/09 00:31:42;;;;;;;9.88;2.72;;;;;;;14.53;93.42;102340.84;4993442;28;20184;-47
2022/07/09 00:34:08;;;;;;;3.58;2.30;;;;;;;14.51;93.43;102340.00;4993395;28;20188;-50
2022/07/09 00:36:33;;;;;;;4.53;1.90;;;;;;;14.61;93.51;102325.34;4993303;28;20181;-49
2022/07/09 00:38:59;;;;;;;4.47;2.17;;;;;;;14.59;93.30;102338.00;4993144;28;20229;-49
2022/07/09 00:41:24;;;;;;;5.78;2.25;;;;;;;14.52;93.26;102330.97;4993041;28;20181;-48
2022/07/09 00:43:50;;;;;;;6.57;2.45;;;;;;;14.56;94.04;102333.59;5007722;28;20233;-50
2022/07/09 00:46:17;;;;;;;7.38;2.65;;;;;;;14.55;93.63;102339.91;4993168;28;20212;-51
2022/07/09 00:48:42;;;;;;;8.75;2.30;;;;;;;14.57;93.87;102329.94;4992450;28;20768;-47
2022/07/09 00:51:13;;;;;;;8.50;2.67;;;;;;;14.48;94.24;102329.31;4993252;28;20268;-54
2022/07/09 00:53:39;;;;;;;7.32;2.40;;;;;;;14.53;94.23;102327.38;4992439;28;20224;-49
2022/07/09 00:56:05;;;;;;;5.03;2.10;;;;;;;14.54;93.59;102324.63;4992742;28;20661;-50
2022/07/09 00:58:31;;;;;;;7.50;2.22;;;;;;;14.60;93.32;102319.03;4992848;28;20208;-50
2022/07/09 01:00:58;;;;;;;5.00;2.17;;;;;;;14.57;93.20;102315.59;4993053;28;20177;-49
2022/07/09 01:03:23;;;;;;;4.25;2.10;;;;;;;14.60;93.23;102310.97;4992611;28;20182;-47
2022/07/09 01:05:49;;;;;;;6.13;2.10;;;;;;;14.65;93.14;102308.16;4992622;28;20551;-50
2022/07/09 01:08:15;;;;;;;5.95;1.75;;;;;;;14.59;93.42;102309.19;4993248;28;20228;-49
2022/07/09 01:10:41;;;;;;;4.40;1.60;;;;;;;14.59;93.50;102308.31;4992306;28;20201;-49
2022/07/09 01:13:06;;;;;;;4.38;1.77;;;;;;;14.57;93.55;102308.38;4992599;28;20220;-49
2022/07/09 01:15:32;;;;;;;3.95;1.80;;;;;;;14.54;93.54;102303.06;4992774;28;20205;-48
2022/07/09 01:17:58;;;;;;;3.97;1.70;;;;;;;14.55;93.63;102307.53;4992656;28;20299;-47
2022/07/09 01:20:25;;;;;;;4.30;2.20;;;;;;;14.50;93.51;102303.19;4992357;28;20267;-48
2022/07/09 01:22:51;;;;;;;3.53;1.88;;;;;;;14.54;93.33;102292.25;4992425;28;20178;-47
2022/07/09 01:25:18;;;;;;;4.97;2.10;;;;;;;14.49;93.34;102291.50;4991718;28;20607;-48
2022/07/09 01:27:44;;;;;;;4.05;2.05;;;;;;;14.59;93.28;102297.53;4992441;28;20563;-50
2022/07/09 01:30:10;;;;;;;3.72;1.63;;;;;;;14.55;93.57;102283.25;5007287;28;20542;-51
2022/07/09 01:32:36;;;;;;;3.38;2.10;;;;;;;14.53;93.62;102290.47;4992330;28;20587;-49
2022/07/09 01:35:02;;;;;;;6.28;2.22;;;;;;;14.48;94.17;102289.75;4991941;28;20197;-50
2022/07/09 01:37:28;;;;;;;3.95;1.85;;;;;;;14.46;94.46;102288.91;4991939;28;20216;-49
2022/07/09 01:39:53;;;;;;;4.80;1.90;;;;;;;14.53;94.43;102281.50;4988873;28;20531;-47
2022/07/09 01:42:20;;;;;;;6.28;2.03;;;;;;;14.40;94.67;102279.19;4972422;28;20189;-48
2022/07/09 01:44:46;;;;;;;6.20;2.00;;;;;;;14.37;95.28;102286.50;4955801;28;20259;-48
2022/07/09 01:47:14;;;;;;;2.88;2.05;;;;;;;14.37;95.61;102284.69;4971382;28;20162;-49
2022/07/09 01:49:40;;;;;;;5.57;2.05;;;;;;;14.35;96.10;102283.84;4982735;28;20186;-47
2022/07/09 01:52:06;;;;;;;2.83;2.13;;;;;;;14.22;96.92;102272.56;4992549;28;20644;-47
2022/07/09 01:54:32;;;;;;;5.95;2.40;;;;;;;14.35;97.67;102280.28;4975067;28;20205;-48
2022/07/09 01:56:57;;;;;;;5.75;2.05;;;;;;;14.26;98.70;102269.78;4992297;28;20170;-48
2022/07/09 01:59:23;;;;;;;6.47;2.72;;;;;;;14.23;99.65;102265.34;4975156;28;20291;-49
2022/07/09 02:01:48;;;;;;;7.38;2.28;;;;;;;14.11;100.00;102263.91;4992484;28;20672;-51
2022/07/09 02:04:14;;;;;;;7.55;2.20;;;;;;;14.12;100.00;102267.47;4991941;28;20178;-49
2022/07/09 02:06:39;;;;;;;9.85;3.13;;;;;;;14.13;100.00;102256.66;4992454;28;20178;-48
2022/07/09 02:09:05;;;;;;;7.55;2.53;;;;;;;14.12;100.00;102259.41;4992428;28;20197;-47
2022/07/09 02:11:30;;;;;;;9.18;3.10;;;;;;;14.11;100.00;102250.44;4992548;28;20166;-47
2022/07/09 02:13:56;;;;;;;8.77;3.33;;;;;;;13.93;100.00;102243.78;4991576;28;20186;-47
2022/07/09 02:16:21;;;;;;;8.82;3.28;;;;;;;13.93;100.00;102246.47;4992041;28;20225;-52
2022/07/09 02:18:47;;;;;;;4.88;3.00;;;;;;;13.94;100.00;102244.66;4991904;28;20220;-47
2022/07/09 02:21:12;;;;;;;9.65;3.38;;;;;;;13.95;100.00;102243.72;4992835;28;20551;-46
2022/07/09 02:23:38;;;;;;;8.10;2.90;;;;;;;13.97;100.00;102241.88;4992041;28;20570;-46
2022/07/09 02:26:04;;;;;;;9.65;3.40;;;;;;;13.95;100.00;102243.72;4992253;28;20177;-47
2022/07/09 02:28:29;;;;;;;8.30;3.70;;;;;;;13.94;100.00;102232.06;4992148;28;20296;-48
2022/07/09 02:30:56;;;;;;;7.90;3.63;;;;;;;13.83;100.00;102244.09;4974639;28;20688;-49
2022/07/09 02:33:22;;;;;;;11.65;3.80;;;;;;;13.91;100.00;102242.06;4991746;28;20201;-52
2022/07/09 02:35:47;;;;;;;12.23;3.78;;;;;;;13.99;100.00;102232.84;4991836;28;20318;-46
2022/07/09 02:38:12;;;;;;;8.05;3.67;;;;;;;13.89;100.00;102225.94;4991750;28;20216;-47
2022/07/09 02:40:38;;;;;;;7.28;3.58;;;;;;;13.94;100.00;102228.50;4991725;28;20304;-45
2022/07/09 02:43:03;;;;;;;12.65;3.78;;;;;;;13.92;100.00;102227.66;4991685;28;20189;-46
2022/07/09 02:45:29;;;;;;;9.25;3.65;;;;;;;13.95;100.00;102220.38;4991614;28;20177;-49
2022/07/09 02:47:54;;;;;;;5.93;3.58;;;;;;;13.99;100.00;102222.06;4991671;28;20700;-47
2022/07/09 02:50:20;;;;;;;13.57;4.00;;;;;;;13.89;100.00;102223.25;4991795;28;20205;-44
2022/07/09 02:52:45;;;;;;;4.95;3.10;;;;;;;14.04;100.00;102215.63;4991976;28;20165;-45
2022/07/09 02:55:11;;;;;;;8.20;3.58;;;;;;;13.94;100.00;102213.22;4991319;28;20189;-45
2022/07/09 02:57:36;;;;;;;6.25;3.33;;;;;;;13.98;100.00;102214.00;4992085;28;20201;-43
2022/07/09 03:00:03;;;;;;;7.43;3.40;;;;;;;14.11;100.00;102215.41;4958148;28;20565;-45
2022/07/09 03:02:29;;;;;;;9.80;3.83;;;;;;;13.97;100.00;102207.75;4991856;28;20192;-50
2022/07/09 03:04:54;;;;;;;12.18;3.67;;;;;;;14.07;100.00;102211.03;4991396;28;20161;-45
2022/07/09 03:07:20;;;;;;;7.57;3.63;;;;;;;14.05;100.00;102204.81;4991588;28;20177;-46
2022/07/09 03:09:45;;;;;;;6.68;3.78;;;;;;;14.07;100.00;102199.38;4991734;28;20162;-47
2022/07/09 03:12:11;;;;;;;9.70;3.88;;;;;;;14.04;100.00;102207.53;4991640;28;20172;-43
2022/07/09 03:14:36;;;;;;;8.88;4.05;;;;;;;13.95;100.00;102203.31;4991090;28;20189;-43
2022/07/09 03:17:02;;;;;;;7.40;3.90;;;;;;;13.97;100.00;102198.75;4991028;28;20228;-48
2022/07/09 03:19:27;;;;;;;8.55;3.80;;;;;;;14.08;100.00;102187.66;4968231;28;20209;-45
2022/07/09 03:21:53;;;;;;;8.40;3.50;;;;;;;14.09;100.00;102187.59;4987420;28;20191;-43
2022/07/09 03:24:18;;;;;;;7.70;3.88;;;;;;;14.09;100.00;102179.53;4991059;28;20614;-44
2022/07/09 03:26:43;;;;;;;7.22;3.92;;;;;;;14.14;100.00;102173.97;4991053;28;20193;-42
2022/07/09 03:29:09;;;;;;;7.72;3.85;;;;;;;14.04;100.00;102175.19;4990874;28;20647;-43
2022/07/09 03:31:34;;;;;;;6.55;4.38;;;;;;;14.07;100.00;102172.41;4973486;28;20177;-45
2022/07/09 03:34:00;;;;;;;10.57;4.35;;;;;;;14.04;100.00;102162.63;4990967;28;20296;-44
2022/07/09 03:36:25;;;;;;;11.05;4.47;;;;;;;14.06;100.00;102163.47;4990988;28;20205;-45
2022/07/09 03:38:51;;;;;;;18.60;4.32;;;;;;;14.06;100.00;102166.16;4991183;28;20202;-45
2022/07/09 03:41:16;;;;;;;8.73;4.25;;;;;;;14.13;100.00;102159.63;4991197;28;20249;-49
2022/07/09 03:43:42;;;;;;;12.50;4.68;;;;;;;14.13;100.00;102174.94;4990821;28;20165;-42
2022/07/09 03:46:07;;;;;;;7.35;4.50;;;;;;;14.16;100.00;102177.50;4991221;28;20162;-44
2022/07/09 03:48:34;;;;;;;11.32;5.07;;;;;;;14.10;100.00;102170.53;4982760;28;20692;-47
2022/07/09 03:51:00;;;;;;;8.93;4.70;;;;;;;14.16;100.00;102185.59;4973746;28;20186;-45
2022/07/09 03:53:25;;;;;;;8.20;4.88;;;;;;;14.10;100.00;102175.91;4975142;28;20177;-47
2022/07/09 03:55:50;;;;;;;11.50;4.75;;;;;;;14.05;100.00;102176.97;4958147;28;20193;-46
2022/07/09 03:58:16;;;;;;;8.50;4.30;;;;;;;14.17;100.00;102177.47;4973985;28;20206;-44
2022/07/09 04:00:41;;;;;;;10.27;4.72;;;;;;;14.10;100.00;102178.63;4975310;28;20177;-45
2022/07/09 04:03:07;;;;;;;11.63;5.30;;;;;;;14.19;100.00;102175.63;4975009;28;20249;-48
2022/07/09 04:05:33;;;;;;;8.02;3.88;;;;;;;14.22;100.00;102163.84;4977752;28;20186;-44
2022/07/09 04:07:58;;;;;;;11.57;4.72;;;;;;;14.17;100.00;102168.50;4990304;28;20220;-44
2022/07/09 04:10:24;;;;;;;10.20;5.22;;;;;;;14.22;100.00;102163.84;4994523;28;20244;-48
2022/07/09 04:12:49;;;;;;;12.48;4.85;;;;;;;14.18;100.00;102164.88;4994447;28;20182;-44
2022/07/09 04:15:15;;;;;;;11.35;5.03;;;;;;;14.25;100.00;102162.88;4994154;28;20197;-43
2022/07/09 04:17:40;;;;;;;10.40;4.70;;;;;;;14.22;100.00;102163.84;4994523;28;20189;-48
2022/07/09 04:20:06;;;;;;;14.25;4.75;;;;;;;14.35;100.00;102167.91;4994785;28;20169;-45
2022/07/09 04:22:32;;;;;;;10.13;4.60;;;;;;;14.27;100.00;102158.31;4994700;28;20535;-41
2022/07/09 04:24:57;;;;;;;10.02;4.53;;;;;;;14.30;100.00;102161.78;4994116;28;20192;-44
2022/07/09 04:27:23;;;;;;;9.00;4.70;;;;;;;14.39;100.00;102164.19;4994415;28;20634;-45
2022/07/09 04:29:48;;;;;;;6.40;4.32;;;;;;;14.32;100.00;102154.53;4994401;28;20181;-44
2022/07/09 04:32:15;;;;;;;8.38;4.40;;;;;;;14.43;100.00;102162.28;4994366;28;20249;-45
2022/07/09 04:34:41;;;;;;;8.15;4.38;;;;;;;14.42;100.00;102166.75;4994169;28;20486;-45
2022/07/09 04:37:06;;;;;;;7.15;4.05;;;;;;;14.49;100.00;102147.69;4994662;28;20671;-44
2022/07/09 04:39:32;;;;;;;9.35;5.10;;;;;;;14.39;100.00;102150.69;4994364;28;20157;-45
2022/07/09 04:41:58;;;;;;;10.05;5.25;;;;;;;14.39;100.00;102155.22;4994157;28;20173;-42
2022/07/09 04:44:23;;;;;;;7.10;4.78;;;;;;;14.39;100.00;102155.22;4994035;28;20180;-45
2022/07/09 04:46:49;;;;;;;9.20;5.38;;;;;;;14.40;100.00;102157.84;4994296;28;20223;-47
2022/07/09 04:49:15;;;;;;;11.70;5.22;;;;;;;14.35;100.00;102154.44;4994074;28;20201;-47
2022/07/09 04:51:40;;;;;;;11.60;4.78;;;;;;;14.47;100.00;102171.13;4976465;28;20557;-45
2022/07/09 04:54:06;;;;;;;7.78;4.43;;;;;;;14.59;100.00;102151.88;4993996;28;20264;-45
2022/07/09 04:56:32;;;;;;;10.68;4.95;;;;;;;14.57;100.00;102153.75;4994210;28;20190;-47
2022/07/09 04:58:59;;;;;;;10.93;4.43;;;;;;;14.60;100.00;102148.25;4993436;28;20204;-47
2022/07/09 05:01:24;;;;;;;7.78;4.35;;;;;;;14.63;100.00;102148.16;4993651;28;20183;-44
2022/07/09 05:03:50;;;;;;;12.65;4.70;;;;;;;14.71;100.00;102142.47;4993659;28;20257;-48
2022/07/09 05:06:17;;;;;;;8.52;4.40;;;;;;;14.69;100.00;102142.53;4993950;28;20224;-44
2022/07/09 05:08:42;;;;;;;8.20;4.55;;;;;;;14.73;100.00;102146.00;4993820;28;20208;-48
2022/07/09 05:11:08;;;;;;;11.18;4.70;;;;;;;14.84;100.00;102136.59;4993849;28;20182;-45
2022/07/09 05:13:33;;;;;;;8.88;4.25;;;;;;;14.77;100.00;102137.75;4993153;28;20185;-44
2022/07/09 05:15:59;;;;;;;10.57;4.40;;;;;;;14.79;100.00;102130.50;4993433;28;20200;-47
2022/07/09 05:18:24;;;;;;;9.45;4.25;;;;;;;14.92;100.00;102127.38;4993353;28;20689;-47
2022/07/09 05:20:50;;;;;;;5.88;3.60;;;;;;;14.90;100.00;102124.72;4993593;28;20519;-45
2022/07/09 05:23:15;;;;;;;8.73;3.67;;;;;;;14.97;100.00;102136.16;4993145;28;20169;-44
2022/07/09 05:25:41;;;;;;;8.50;3.15;;;;;;;14.84;100.00;102135.72;4975978;28;20185;-46
2022/07/09 05:28:06;;;;;;;5.85;3.90;;;;;;;14.89;100.00;102135.56;4993158;28;20291;-44
2022/07/09 05:30:36;;;;;;;10.80;4.30;;;;;;;14.92;100.00;102138.16;4993285;28;20166;-44
2022/07/09 05:33:03;;;;;;;5.00;2.70;;;;;;;14.99;100.00;102150.50;4993326;28;20659;-43
2022/07/09 05:35:29;;;;;;;4.85;2.70;;;;;;;14.99;100.00;102142.41;4993007;28;20561;-48
2022/07/09 05:37:55;;;;;;;5.28;3.00;;;;;;;15.00;100.00;102146.88;4993239;28;20260;-45
2022/07/09 05:40:20;;;;;;;6.10;3.13;;;;;;;15.01;100.00;102146.81;4993309;28;20601;-45
2022/07/09 05:42:46;;;;;;;5.43;3.00;;;;;;;15.13;100.00;102139.19;4975914;28;20173;-46
2022/07/09 05:45:12;;;;;;;5.30;3.55;;;;;;;15.03;100.00;102135.97;4992627;28;20515;-48
2022/07/09 05:47:37;;;;;;;3.17;2.80;;;;;;;15.05;100.00;102139.47;4993031;28;20263;-46
2022/07/09 05:50:04;;;;;;;2.35;2.15;;;;;;;14.98;100.00;102137.94;5007891;28;20221;-42
2022/07/09 05:52:29;;;;;;;4.82;1.95;;;;;;;15.08;100.00;102142.06;4993086;28;20188;-45
2022/07/09 05:54:55;;;;;;;4.95;2.70;;;;;;;15.01;100.00;102133.31;4992542;28;20193;-50
2022/07/09 05:57:20;;;;;;;2.33;1.45;;;;;;;15.33;100.00;102133.97;4992752;28;20166;-47
2022/07/09 05:59:46;;;;;;;2.45;1.67;;;;;;;15.35;100.00;102139.28;4992787;28;20185;-47
2022/07/09 06:02:11;;;;;;;3.40;1.70;;;;;;;15.36;100.00;102135.66;4992687;28;20169;-43
2022/07/09 06:04:37;;;;;;;2.35;1.40;;;;;;;15.38;100.00;102137.34;4992733;28;20217;-44
2022/07/09 06:07:03;;;;;;;2.20;1.45;;;;;;;15.34;100.00;102129.44;4992533;28;20170;-44
2022/07/09 06:09:28;;;;;;;1.70;1.60;;;;;;;15.37;100.00;102130.22;4992699;28;20201;-47
2022/07/09 06:11:54;;;;;;;3.20;1.45;;;;;;;15.47;100.00;102135.25;4991643;28;20249;-43
2022/07/09 06:14:20;;;;;;;2.75;1.50;;;;;;;15.41;100.00;102130.94;4992284;28;20166;-45
2022/07/09 06:16:46;;;;;;;5.30;1.67;;;;;;;15.41;100.00;102130.94;4992378;28;20174;-45
2022/07/09 06:19:13;;;;;;;3.53;1.70;;;;;;;15.43;100.00;102120.97;4992350;28;20201;-43
2022/07/09 06:21:38;;;;;;;4.88;1.75;;;;;;;15.34;100.00;102124.91;4992503;28;20625;-45
2022/07/09 06:24:05;;;;;;;2.50;1.85;;;;;;;15.51;100.00;102124.28;4991955;28;20192;-46
2022/07/09 06:26:31;;;;;;;7.00;2.08;;;;;;;15.49;100.00;102122.56;4992339;28;20170;-46
2022/07/09 06:28:57;;;;;;;3.90;2.08;;;;;;;15.60;100.00;102113.09;4974684;28;20201;-44
2022/07/09 06:31:22;;;;;;;5.43;2.10;;;;;;;15.71;100.00;102115.44;4992364;28;20180;-43
2022/07/09 06:33:48;;;;;;;4.13;2.20;;;;;;;16.11;100.00;102110.25;4991474;28;20192;-44
2022/07/09 06:36:14;;;;;;;3.03;1.70;;;;;;;16.47;100.00;102114.13;4991971;28;20217;-47
2022/07/09 06:41:23;;;;;;;3.53;1.80;;;;;;;17.18;100.00;102113.75;4991809;28;20177;-46
2022/07/09 06:43:49;;;;;;;9.95;8.95;;;;;;;17.21;98.46;102102.78;4991447;28;20663;-47
2022/07/09 06:46:14;;;;;;;5.57;3.67;;;;;;;16.97;97.43;102093.97;4992089;28;20223;-46
2022/07/09 06:48:40;;;;;;;4.63;2.00;;;;;;;17.40;96.15;102104.63;4991561;28;20241;-47
2022/07/09 06:51:05;;;;;;;5.78;1.67;;;;;;;17.16;94.42;102101.22;4991552;28;20175;-45
2022/07/09 06:53:31;;;;;;;5.22;1.70;;;;;;;17.05;93.81;102093.59;4991038;28;20212;-47
2022/07/09 06:55:56;;;;;;;5.22;1.83;;;;;;;17.12;94.58;102100.53;4991405;28;20204;-46
2022/07/09 06:58:21;;;;;;;4.50;1.65;;;;;;;17.11;93.30;102109.56;4991654;28;20197;-46
2022/07/09 07:00:47;;;;;;;2.38;1.33;;;;;;;17.61;92.13;102105.47;4991376;28;20264;-47
2022/07/09 07:03:12;;;;;;;4.85;1.50;;;;;;;17.85;90.16;102108.88;4990928;28;20264;-47
2022/07/09 07:05:38;;;;;;;7.20;1.80;;;;;;;17.74;89.69;102114.78;4990678;28;20256;-46
2022/07/09 07:08:04;;;;;;;5.30;1.55;;;;;;;17.31;90.34;102119.50;4991406;28;20197;-46
2022/07/09 07:10:29;;;;;;;5.07;1.42;;;;;;;16.91;90.12;102112.31;4991404;28;20173;-46
2022/07/09 07:12:55;;;;;;;5.15;1.92;;;;;;;16.83;90.35;102108.09;4991257;28;20169;-45
2022/07/09 07:15:21;;;;;;;5.35;1.65;;;;;;;17.28;90.89;102106.97;4990983;28;20377;-46
2022/07/09 07:17:48;;;;;;;5.25;1.80;;;;;;;18.04;88.96;102108.88;4991452;28;20209;-46
2022/07/09 07:20:14;;;;;;;8.70;1.52;;;;;;;18.30;88.22;102104.81;4991257;28;20170;-47
2022/07/09 07:22:39;;;;;;;4.72;1.55;;;;;;;18.26;87.48;102100.53;4990691;28;20196;-47
2022/07/09 07:25:05;;;;;;;7.15;1.95;;;;;;;18.59;86.30;102094.34;4990820;28;20212;-48
2022/07/09 07:27:31;;;;;;;5.88;2.00;;;;;;;18.45;86.40;102093.19;4990967;28;20197;-48
2022/07/09 07:29:56;;;;;;;4.25;1.55;;;;;;;18.50;85.28;102103.84;4991381;28;20309;-46
2022/07/09 07:32:22;;;;;;;5.22;1.80;;;;;;;18.02;85.53;102105.34;4990939;28;20180;-46
2022/07/09 07:34:47;;;;;;;3.17;1.38;;;;;;;17.90;86.94;102099.53;4990766;28;20565;-47
2022/07/09 07:37:13;;;;;;;5.80;1.83;;;;;;;17.33;88.80;102097.75;4991280;28;20184;-47
2022/07/09 07:39:38;;;;;;;6.80;1.67;;;;;;;17.70;88.47;102105.03;4991175;28;20260;-46
2022/07/09 07:42:06;;;;;;;6.15;1.30;;;;;;;18.29;83.91;102094.94;4991031;28;20169;-47
2022/07/09 07:44:32;;;;;;;4.80;1.50;;;;;;;18.67;82.20;102090.28;4973185;28;20188;-46
2022/07/09 07:46:57;;;;;;;5.63;1.50;;;;;;;18.85;83.21;102099.31;4990849;28;20169;-45
2022/07/09 07:49:23;;;;;;;3.88;1.20;;;;;;;19.21;80.74;102089.28;4990857;28;20711;-46
2022/07/09 07:51:48;;;;;;;7.28;1.48;;;;;;;19.60;77.99;102093.47;4990882;28;20166;-45
2022/07/09 07:54:14;;;;;;;4.93;1.10;;;;;;;19.56;75.64;102080.03;4990897;28;20188;-46
2022/07/09 07:56:40;;;;;;;4.78;1.40;;;;;;;19.46;74.58;102083.34;4991088;28;20249;-45
2022/07/09 07:59:05;;;;;;;3.83;1.20;;;;;;;19.72;72.38;102087.34;4973182;28;20288;-47
2022/07/09 08:01:31;;;;;;;3.50;1.20;;;;;;;20.19;73.22;102075.59;4991050;28;20173;-44
2022/07/09 08:03:56;;;;;;;7.03;1.30;;;;;;;20.15;72.16;102088.47;4990280;28;20176;-44
2022/07/09 08:06:22;;;;;;;6.50;1.30;;;;;;;19.99;72.93;102086.75;4990561;28;20170;-47
2022/07/09 08:08:48;;;;;;;3.15;1.15;;;;;;;20.05;72.77;102073.69;4990786;28;20208;-45
2022/07/09 08:11:14;;;;;;;4.47;1.35;;;;;;;19.74;74.12;102083.63;4990913;28;20170;-46
2022/07/09 08:13:39;;;;;;;6.68;1.40;;;;;;;19.30;74.58;102084.19;4990276;28;20220;-46
2022/07/09 08:16:06;;;;;;;5.65;1.65;;;;;;;19.11;74.38;102084.34;4990559;28;20271;-47
2022/07/09 08:18:32;;;;;;;4.88;1.13;;;;;;;18.96;73.80;102089.69;4990778;28;20685;-46
2022/07/09 08:20:57;;;;;;;4.15;1.20;;;;;;;18.66;74.74;102090.34;4990452;28;20177;-48
2022/07/09 08:23:23;;;;;;;4.78;1.27;;;;;;;19.02;75.61;102084.84;4990129;28;20205;-45
2022/07/09 08:25:49;;;;;;;3.40;1.00;;;;;;;19.22;75.49;102078.34;4990710;28;20210;-46
2022/07/09 08:28:15;;;;;;;3.90;1.38;;;;;;;18.81;75.46;102083.28;4990893;28;20695;-44
2022/07/09 08:30:41;;;;;;;2.70;1.20;;;;;;;18.71;77.20;102091.84;4990578;28;20177;-46
2022/07/09 08:33:06;;;;;;;3.47;1.08;;;;;;;18.61;77.20;102095.16;4990438;28;20188;-47
2022/07/09 08:35:33;;;;;;;4.10;1.20;;;;;;;18.50;77.07;102098.41;4992740;28;20220;-46
2022/07/09 08:37:58;;;;;;;5.20;1.60;;;;;;;18.48;76.96;102090.34;4994227;28;20560;-46
2022/07/09 08:40:25;;;;;;;3.22;1.02;;;;;;;19.34;74.55;102083.06;4993841;28;20178;-45
2022/07/09 08:42:53;;;;;;;4.82;1.13;;;;;;;19.91;72.74;102079.03;4994159;28;20548;-45
2022/07/09 08:45:20;;;;;;;2.47;0.73;;;;;;;20.21;70.83;102060.03;4993999;28;20550;-45
2022/07/09 08:47:46;;;;;;;3.38;0.90;;;;;;;20.34;69.74;102063.78;4993619;28;20265;-47
2022/07/09 08:50:12;;;;;;;2.17;0.75;;;;;;;20.40;68.55;102065.28;4993524;28;20230;-46
2022/07/09 08:52:40;;;;;;;1.90;0.75;;;;;;;20.47;69.46;102073.94;4993931;28;20177;-45
2022/07/09 08:55:07;;;;;;;2.03;1.10;;;;;;;20.26;69.52;102063.34;4993659;28;20300;-46
2022/07/09 08:57:33;;;;;;;1.63;0.90;;;;;;;20.40;69.92;102078.88;4993639;28;20228;-47
2022/07/09 09:00:04;;;;;;;3.88;0.98;;;;;;;20.64;70.32;102072.94;4994149;28;20189;-45
2022/07/09 09:02:39;;;;;;;2.00;0.70;;;;;;;20.82;67.89;102071.81;4993649;28;20172;-45
2022/07/09 09:05:14;;;;;;;2.85;0.90;;;;;;;20.71;66.70;102067.03;4993502;28;20205;-47
2022/07/09 09:07:41;;;;;;;1.90;0.90;;;;;;;21.11;65.81;102069.13;4993491;28;20196;-47
2022/07/09 09:10:07;;;;;;;4.88;0.77;;;;;;;20.74;66.73;102071.41;4993574;28;20197;-47
2022/07/09 09:12:33;;;;;;;2.20;0.77;;;;;;;21.09;65.11;102074.66;4993618;28;20256;-45
2022/07/09 09:14:59;;;;;;;2.45;1.00;;;;;;;20.14;66.41;102073.13;4993143;28;20209;-45
2022/07/09 09:17:25;;;;;;;2.05;0.60;;;;;;;20.45;66.55;102070.44;4993408;28;20324;-46
2022/07/09 09:19:51;;;;;;;2.65;0.80;;;;;;;20.14;65.69;102086.75;4993450;28;20252;-45
2022/07/09 09:22:18;;;;;;;3.13;0.95;;;;;;;19.62;67.04;102081.53;4993476;28;20565;-44
2022/07/09 09:24:43;;;;;;;6.00;1.08;;;;;;;19.83;69.04;102078.59;4992702;28;20204;-45
2022/07/09 09:27:10;;;;;;;2.70;0.90;;;;;;;20.14;68.31;102080.44;4993455;28;20265;-45
2022/07/09 09:29:39;;;;;;;2.20;1.00;;;;;;;20.45;68.10;102076.75;4975749;28;20601;-47
2022/07/09 09:32:12;;;;;;;3.03;0.90;;;;;;;19.92;68.50;102080.81;4993483;28;20200;-46
2022/07/09 09:34:41;;;;;;;3.53;0.85;;;;;;;19.85;68.37;102085.69;4992759;28;20545;-45
2022/07/09 09:37:08;;;;;;;2.55;0.90;;;;;;;19.46;68.40;102086.97;5008903;28;20189;-48
2022/07/09 09:39:35;;;;;;;2.63;1.13;;;;;;;20.32;66.27;102079.31;4993102;28;20192;-48
2022/07/09 09:42:03;;;;;;;3.00;1.05;;;;;;;20.67;67.19;102072.78;5008560;28;20261;-50
2022/07/09 09:44:39;;;;;;;2.88;1.10;;;;;;;21.06;65.01;102082.19;4992340;28;20188;-47
2022/07/09 09:47:07;;;;;;;2.45;0.73;;;;;;;21.02;64.58;102072.44;4993101;28;20177;-49
2022/07/09 09:49:34;;;;;;;3.35;0.98;;;;;;;20.46;63.29;102072.19;4992962;28;20170;-47
2022/07/09 09:52:04;;;;;;;2.67;1.00;;;;;;;20.36;63.46;102077.31;4993352;28;20189;-46
2022/07/09 09:54:32;;;;;;;3.63;1.02;;;;;;;19.93;65.17;102090.69;4992578;28;20540;-48
2022/07/09 09:56:59;;;;;;;2.28;0.98;;;;;;;19.69;65.21;102096.56;4974912;28;20177;-48
2022/07/09 09:59:25;;;;;;;1.33;0.80;;;;;;;19.90;64.53;102074.56;4993145;28;20224;-47
2022/07/09 10:01:51;;;;;;;6.18;0.80;;;;;;;19.77;64.88;102077.13;4992756;28;20622;-47
2022/07/09 10:04:18;;;;;;;2.95;1.15;;;;;;;19.90;65.17;102064.56;4992363;28;20210;-46
2022/07/09 10:06:44;;;;;;;3.13;0.63;;;;;;;20.20;63.70;102068.28;4992728;28;20599;-48
2022/07/09 10:09:14;;;;;;;1.42;0.80;;;;;;;20.85;62.40;102063.44;4992816;28;20610;-46
2022/07/09 10:11:45;;;;;;;1.80;0.80;;;;;;;21.21;60.69;102067.59;4992631;28;20178;-47
2022/07/09 10:14:23;;;;;;;4.80;1.10;;;;;;;21.02;60.33;102058.81;4992354;28;20188;-47
2022/07/09 10:16:50;;;;;;;3.00;1.33;;;;;;;20.24;61.32;102067.13;4992327;28;20201;-46
2022/07/09 10:19:26;;;;;;;2.50;0.80;;;;;;;20.10;63.02;102081.56;4992371;28;20680;-46
2022/07/09 10:21:54;;;;;;;4.00;1.05;;;;;;;19.45;67.25;102092.47;4992410;28;20181;-47
2022/07/09 10:24:33;;;;;;;5.45;1.38;;;;;;;18.69;68.86;102085.66;4991556;28;20252;-46
2022/07/09 10:27:06;;;;;;;6.28;1.40;;;;;;;19.71;66.93;102081.03;4992017;28;20188;-47
2022/07/09 10:29:33;;;;;;;5.55;1.08;;;;;;;19.73;63.79;102072.81;4992249;28;20186;-48
2022/07/09 10:31:58;;;;;;;3.88;1.20;;;;;;;20.62;62.07;102072.16;4992422;28;20264;-47
2022/07/09 10:34:31;;;;;;;5.32;0.90;;;;;;;20.68;60.44;102074.50;4991282;28;20284;-46
2022/07/09 10:37:02;;;;;;;8.05;1.38;;;;;;;20.70;60.54;102062.53;4992471;28;20197;-46
2022/07/09 10:39:29;;;;;;;6.82;1.40;;;;;;;20.82;61.63;102066.38;4974223;28;20672;-47
2022/07/09 10:42:06;;;;;;;6.57;1.25;;;;;;;20.21;61.20;102059.19;4990797;28;20248;-46
2022/07/09 10:44:40;;;;;;;2.45;1.02;;;;;;;20.31;60.62;102076.69;4991588;28;20181;-47
2022/07/09 10:47:06;;;;;;;4.18;1.25;;;;;;;19.60;61.82;102069.88;4991812;28;20177;-47
2022/07/09 10:49:38;;;;;;;3.95;1.13;;;;;;;19.85;61.92;102072.09;4991761;28;20169;-47
2022/07/09 10:52:05;;;;;;;3.17;1.10;;;;;;;20.01;62.57;102072.09;4992277;28;20209;-45
2022/07/09 10:54:31;;;;;;;4.43;1.30;;;;;;;20.78;62.15;102065.69;4991551;28;20176;-47
2022/07/09 10:56:57;;;;;;;3.08;1.02;;;;;;;20.64;61.06;102059.31;4991601;28;20549;-45
2022/07/09 10:59:24;;;;;;;6.22;1.48;;;;;;;20.83;59.11;102061.81;4991273;28;20205;-47
2022/07/09 11:01:51;;;;;;;5.70;1.23;;;;;;;19.64;59.81;102065.16;4974550;28;20568;-46
2022/07/09 11:04:31;;;;;;;3.83;1.30;;;;;;;18.88;63.45;102069.28;4991261;28;20546;-48
2022/07/09 11:06:57;;;;;;;7.70;1.40;;;;;;;19.69;62.83;102065.75;4991858;28;20268;-47
2022/07/09 11:09:29;;;;;;;6.13;1.50;;;;;;;20.14;61.66;102054.09;4991351;28;20193;-48
2022/07/09 11:11:54;;;;;;;5.05;1.33;;;;;;;20.31;60.59;102055.81;4991634;28;20181;-46
2022/07/09 11:14:20;;;;;;;4.25;1.38;;;;;;;20.01;60.70;102055.78;4991336;28;20656;-50
2022/07/09 11:16:56;;;;;;;4.07;1.17;;;;;;;20.22;60.52;102058.19;4991630;28;20197;-47
2022/07/09 11:19:22;;;;;;;4.50;1.30;;;;;;;19.86;61.74;102052.09;4991686;28;20217;-47